createdAt,value
2017-09-03T00:00:43.340Z,12.98
2017-09-03T00:01:43.303Z,12.85
2017-09-03T00:02:43.269Z,12.85
2017-09-03T00:03:43.236Z,12.80
2017-09-03T00:04:43.194Z,12.76
2017-09-03T00:05:43.185Z,12.80
2017-09-03T00:06:43.125Z,12.80
2017-09-03T00:07:43.107Z,12.82
2017-09-03T00:08:43.070Z,12.85
2017-09-03T00:09:43.021Z,12.91
2017-09-03T00:10:42.994Z,12.82
2017-09-03T00:11:42.994Z,12.87
2017-09-03T00:12:42.919Z,12.86
2017-09-03T00:13:42.899Z,12.90
2017-09-03T00:14:42.915Z,12.90
2017-09-03T00:15:42.813Z,12.83
2017-09-03T00:16:42.772Z,12.79
2017-09-03T00:17:42.744Z,12.76
2017-09-03T00:18:42.712Z,12.78
2017-09-03T00:19:42.674Z,12.87
2017-09-03T00:20:42.641Z,12.79
2017-09-03T00:21:42.600Z,12.82
2017-09-03T00:22:42.563Z,12.79
2017-09-03T00:23:42.543Z,12.82
2017-09-03T00:24:42.500Z,12.80
2017-09-03T00:25:42.458Z,12.86
2017-09-03T00:26:42.430Z,12.78
2017-09-03T00:27:42.401Z,12.73
2017-09-03T00:28:42.354Z,12.68
2017-09-03T00:29:42.320Z,12.82
2017-09-03T00:30:42.281Z,12.68
2017-09-03T00:31:42.253Z,12.72
2017-09-03T00:32:42.221Z,12.64
2017-09-03T00:33:42.182Z,12.68
2017-09-03T00:34:42.151Z,12.64
2017-09-03T00:35:42.108Z,12.58
2017-09-03T00:36:42.070Z,12.67
2017-09-03T00:37:42.040Z,12.72
2017-09-03T00:38:42.007Z,12.58
2017-09-03T00:39:41.966Z,12.72
2017-09-03T00:40:41.934Z,12.67
2017-09-03T00:41:41.909Z,12.68
2017-09-03T00:42:41.871Z,12.85
2017-09-03T00:43:41.829Z,12.78
2017-09-03T00:44:41.789Z,12.85
2017-09-03T00:45:41.768Z,12.75
2017-09-03T00:46:41.719Z,12.78
2017-09-03T00:47:41.690Z,12.83
2017-09-03T00:48:41.655Z,12.68
2017-09-03T00:49:41.615Z,12.73
2017-09-03T00:50:41.579Z,12.68
2017-09-03T00:51:41.553Z,12.70
2017-09-03T00:52:41.512Z,12.61
2017-09-03T00:53:41.481Z,12.55
2017-09-03T00:54:41.438Z,12.53
2017-09-03T00:55:41.410Z,12.67
2017-09-03T00:56:41.372Z,12.62
2017-09-03T00:57:41.340Z,12.61
2017-09-03T00:58:41.301Z,12.60
2017-09-03T00:59:41.266Z,12.62
2017-09-03T01:00:41.229Z,12.45
2017-09-03T01:01:41.211Z,12.46
2017-09-03T01:02:41.155Z,12.53
2017-09-03T01:03:41.148Z,12.42
2017-09-03T01:04:41.099Z,12.43
2017-09-03T01:05:41.054Z,12.50
2017-09-03T01:06:41.020Z,12.42
2017-09-03T01:07:40.981Z,12.40
2017-09-03T01:08:40.947Z,12.46
2017-09-03T01:09:40.908Z,12.46
2017-09-03T01:10:40.880Z,12.47
2017-09-03T01:11:40.847Z,12.37
2017-09-03T01:12:40.806Z,12.35
2017-09-03T01:13:40.777Z,12.35
2017-09-03T01:14:40.739Z,12.37
2017-09-03T01:15:40.706Z,12.43
2017-09-03T01:16:40.670Z,12.35
2017-09-03T01:17:40.652Z,12.36
2017-09-03T01:18:40.596Z,12.39
2017-09-03T01:19:40.561Z,12.39
2017-09-03T01:20:40.522Z,12.37
2017-09-03T01:21:40.487Z,12.40
2017-09-03T01:22:40.459Z,12.39
2017-09-03T01:23:40.418Z,12.35
2017-09-03T01:24:40.393Z,12.36
2017-09-03T01:25:40.346Z,12.36
2017-09-03T01:26:40.318Z,12.29
2017-09-03T01:27:40.282Z,12.36
2017-09-03T01:28:40.353Z,12.37
2017-09-03T01:29:40.265Z,12.43
2017-09-03T01:30:40.169Z,12.50
2017-09-03T01:31:40.195Z,12.54
2017-09-03T01:32:40.097Z,12.54
2017-09-03T01:33:40.070Z,12.45
2017-09-03T01:34:40.034Z,12.43
2017-09-03T01:35:39.998Z,12.37
2017-09-03T01:36:39.976Z,12.25
2017-09-03T01:37:39.929Z,12.24
2017-09-03T01:38:39.890Z,12.24
2017-09-03T01:39:39.859Z,12.25
2017-09-03T01:40:39.817Z,12.18
2017-09-03T01:41:39.783Z,12.17
2017-09-03T01:42:39.748Z,12.15
2017-09-03T01:43:39.715Z,12.09
2017-09-03T01:44:39.675Z,12.09
2017-09-03T01:45:39.641Z,12.21
2017-09-03T01:46:39.609Z,12.28
2017-09-03T01:47:39.569Z,12.22
2017-09-03T01:48:39.548Z,12.20
2017-09-03T01:49:39.500Z,12.21
2017-09-03T01:50:39.464Z,12.21
2017-09-03T01:51:39.424Z,12.22
2017-09-03T01:52:39.398Z,12.21
2017-09-03T01:53:39.359Z,12.12
2017-09-03T01:54:39.320Z,12.07
2017-09-03T01:55:39.288Z,12.10
2017-09-03T01:56:39.254Z,12.17
2017-09-03T01:57:39.214Z,12.20
2017-09-03T01:58:39.182Z,12.07
2017-09-03T01:59:39.152Z,12.20
2017-09-03T02:00:39.117Z,12.09
2017-09-03T02:01:39.083Z,12.22
2017-09-03T02:02:39.048Z,12.07
2017-09-03T02:03:39.016Z,12.04
2017-09-03T02:04:38.971Z,12.12
2017-09-03T02:05:38.938Z,12.18
2017-09-03T02:06:38.895Z,12.13
2017-09-03T02:07:38.860Z,12.15
2017-09-03T02:08:38.824Z,12.03
2017-09-03T02:09:38.794Z,11.97
2017-09-03T02:10:38.756Z,12.03
2017-09-03T02:11:38.739Z,12.02
2017-09-03T02:12:38.685Z,12.02
2017-09-03T02:13:38.651Z,12.20
2017-09-03T02:14:38.621Z,12.31
2017-09-03T02:15:38.582Z,12.28
2017-09-03T02:16:38.548Z,12.31
2017-09-03T02:17:38.512Z,12.37
2017-09-03T02:18:38.468Z,12.37
2017-09-03T02:19:38.438Z,12.39
2017-09-03T02:20:38.398Z,12.39
2017-09-03T02:21:38.370Z,12.36
2017-09-03T02:22:38.332Z,12.36
2017-09-03T02:23:38.305Z,12.27
2017-09-03T02:24:38.275Z,12.35
2017-09-03T02:25:38.225Z,12.20
2017-09-03T02:26:38.192Z,12.10
2017-09-03T02:27:38.152Z,12.13
2017-09-03T02:28:38.121Z,12.06
2017-09-03T02:29:38.092Z,12.00
2017-09-03T02:30:38.049Z,12.07
2017-09-03T02:31:38.015Z,12.18
2017-09-03T02:32:37.979Z,12.18
2017-09-03T02:33:37.942Z,12.20
2017-09-03T02:34:37.910Z,12.13
2017-09-03T02:35:37.870Z,12.20
2017-09-03T02:36:37.834Z,12.18
2017-09-03T02:37:37.795Z,12.24
2017-09-03T02:38:37.764Z,12.27
2017-09-03T02:39:37.730Z,12.24
2017-09-03T02:40:37.691Z,12.09
2017-09-03T02:41:37.666Z,11.97
2017-09-03T02:42:37.620Z,12.09
2017-09-03T02:43:37.584Z,12.03
2017-09-03T02:44:37.549Z,12.10
2017-09-03T02:45:37.514Z,12.15
2017-09-03T02:46:37.476Z,12.13
2017-09-03T02:47:37.448Z,12.21
2017-09-03T02:48:37.413Z,12.09
2017-09-03T02:49:37.380Z,12.20
2017-09-03T02:50:37.335Z,12.07
2017-09-03T02:51:37.324Z,12.10
2017-09-03T02:52:37.264Z,12.12
2017-09-03T02:53:37.233Z,12.12
2017-09-03T02:54:37.202Z,12.07
2017-09-03T02:55:37.161Z,12.12
2017-09-03T02:56:37.130Z,12.06
2017-09-03T02:57:37.115Z,12.15
2017-09-03T02:58:37.053Z,12.22
2017-09-03T02:59:37.023Z,12.31
2017-09-03T03:00:36.976Z,12.29
2017-09-03T03:01:36.949Z,12.35
2017-09-03T03:02:36.916Z,12.35
2017-09-03T03:03:36.879Z,12.37
2017-09-03T03:04:36.845Z,12.36
2017-09-03T03:05:36.804Z,12.36
2017-09-03T03:06:36.767Z,12.40
2017-09-03T03:07:36.729Z,12.35
2017-09-03T03:08:36.700Z,12.37
2017-09-03T03:09:36.664Z,12.35
2017-09-03T03:10:36.630Z,12.28
2017-09-03T03:11:36.592Z,12.39
2017-09-03T03:12:36.557Z,12.28
2017-09-03T03:13:36.545Z,12.28
2017-09-03T03:14:36.492Z,12.15
2017-09-03T03:15:36.452Z,12.09
2017-09-03T03:16:36.411Z,11.99
2017-09-03T03:17:36.379Z,11.95
2017-09-03T03:18:36.343Z,12.09
2017-09-03T03:19:36.312Z,12.15
2017-09-03T03:20:36.274Z,11.99
2017-09-03T03:21:36.242Z,11.97
2017-09-03T03:22:36.209Z,11.94
2017-09-03T03:23:36.169Z,11.90
2017-09-03T03:24:36.132Z,11.95
2017-09-03T03:25:36.099Z,11.95
2017-09-03T03:26:36.058Z,11.94
2017-09-03T03:27:36.024Z,11.88
2017-09-03T03:28:35.986Z,11.94
2017-09-03T03:29:35.951Z,12.07
2017-09-03T03:30:35.913Z,12.04
2017-09-03T03:31:35.935Z,12.00
2017-09-03T03:32:35.847Z,11.94
2017-09-03T03:33:35.818Z,12.02
2017-09-03T03:34:35.771Z,12.12
2017-09-03T03:35:35.740Z,12.07
2017-09-03T03:36:35.699Z,12.04
2017-09-03T03:37:35.668Z,12.13
2017-09-03T03:38:35.628Z,12.09
2017-09-03T03:39:35.598Z,12.10
2017-09-03T03:40:35.559Z,12.07
2017-09-03T03:41:35.533Z,12.21
2017-09-03T03:42:35.490Z,12.15
2017-09-03T03:43:35.450Z,12.21
2017-09-03T03:44:35.424Z,12.21
2017-09-03T03:45:35.389Z,12.22
2017-09-03T03:46:35.346Z,12.04
2017-09-03T03:47:35.313Z,12.18
2017-09-03T03:48:35.281Z,12.13
2017-09-03T03:49:35.249Z,12.18
2017-09-03T03:50:35.208Z,12.18
2017-09-03T03:51:35.168Z,12.10
2017-09-03T03:52:35.131Z,12.20
2017-09-03T03:53:35.105Z,12.06
2017-09-03T03:54:35.084Z,12.06
2017-09-03T03:55:35.032Z,12.04
2017-09-03T03:56:34.987Z,12.13
2017-09-03T03:57:34.965Z,12.18
2017-09-03T03:58:34.920Z,12.27
2017-09-03T03:59:34.885Z,12.07
2017-09-03T04:00:34.854Z,12.18
2017-09-03T04:01:34.813Z,12.18
2017-09-03T04:02:34.778Z,12.17
2017-09-03T04:03:34.741Z,12.04
2017-09-03T04:04:34.704Z,12.02
2017-09-03T04:05:34.669Z,11.91
2017-09-03T04:06:34.634Z,11.90
2017-09-03T04:07:34.597Z,11.73
2017-09-03T04:08:34.559Z,11.86
2017-09-03T04:09:34.533Z,11.78
2017-09-03T04:10:34.493Z,11.73
2017-09-03T04:11:34.459Z,11.69
2017-09-03T04:12:34.422Z,11.60
2017-09-03T04:13:34.380Z,11.70
2017-09-03T04:14:34.346Z,11.66
2017-09-03T04:15:34.312Z,11.72
2017-09-03T04:16:34.281Z,11.63
2017-09-03T04:17:34.243Z,11.68
2017-09-03T04:18:34.207Z,11.59
2017-09-03T04:19:34.169Z,11.59
2017-09-03T04:20:34.136Z,11.63
2017-09-03T04:21:34.105Z,11.66
2017-09-03T04:22:34.072Z,11.68
2017-09-03T04:23:34.027Z,11.62
2017-09-03T04:24:33.995Z,11.81
2017-09-03T04:25:33.956Z,11.86
2017-09-03T04:26:33.915Z,11.88
2017-09-03T04:27:33.880Z,11.97
2017-09-03T04:28:33.843Z,11.91
2017-09-03T04:29:33.816Z,12.10
2017-09-03T04:30:33.774Z,12.10
2017-09-03T04:31:33.737Z,11.97
2017-09-03T04:32:33.703Z,12.07
2017-09-03T04:33:33.671Z,11.86
2017-09-03T04:34:33.639Z,11.70
2017-09-03T04:35:33.600Z,11.72
2017-09-03T04:36:33.570Z,11.66
2017-09-03T04:37:33.528Z,11.75
2017-09-03T04:38:33.492Z,11.95
2017-09-03T04:39:33.460Z,12.02
2017-09-03T04:40:33.416Z,12.24
2017-09-03T04:41:33.394Z,12.43
2017-09-03T04:42:33.360Z,12.65
2017-09-03T04:43:33.310Z,13.00
2017-09-03T04:44:33.280Z,13.39
2017-09-03T04:45:33.242Z,13.37
2017-09-03T04:46:33.204Z,13.74
2017-09-03T04:47:33.168Z,14.03
2017-09-03T04:48:33.133Z,14.20
2017-09-03T04:49:33.098Z,14.62
2017-09-03T04:50:33.065Z,14.79
2017-09-03T04:51:33.028Z,14.69
2017-09-03T04:52:32.991Z,15.10
2017-09-03T04:53:32.956Z,15.55
2017-09-03T04:54:32.928Z,15.79
2017-09-03T04:55:32.894Z,15.83
2017-09-03T04:56:32.851Z,15.44
2017-09-03T04:57:32.816Z,15.54
2017-09-03T04:58:32.789Z,15.54
2017-09-03T04:59:32.750Z,15.61
2017-09-03T05:00:32.723Z,15.70
2017-09-03T05:01:32.689Z,15.98
2017-09-03T05:02:32.664Z,15.72
2017-09-03T05:03:32.617Z,15.86
2017-09-03T05:04:32.584Z,16.16
2017-09-03T05:05:32.552Z,16.17
2017-09-03T05:06:32.521Z,15.64
2017-09-03T05:07:32.502Z,15.37
2017-09-03T05:08:32.460Z,14.84
2017-09-03T05:09:32.416Z,14.68
2017-09-03T05:10:32.384Z,14.66
2017-09-03T05:11:32.351Z,14.53
2017-09-03T05:12:32.322Z,14.36
2017-09-03T05:13:32.291Z,14.45
2017-09-03T05:14:32.261Z,14.14
2017-09-03T05:15:32.219Z,14.36
2017-09-03T05:16:32.188Z,14.05
2017-09-03T05:17:32.157Z,13.70
2017-09-03T05:18:32.123Z,13.74
2017-09-03T05:19:32.083Z,13.56
2017-09-03T05:20:32.050Z,13.27
2017-09-03T05:21:32.023Z,13.09
2017-09-03T05:22:31.990Z,12.79
2017-09-03T05:23:31.957Z,12.67
2017-09-03T05:24:31.921Z,12.91
2017-09-03T05:25:31.892Z,12.90
2017-09-03T05:26:31.856Z,12.67
2017-09-03T05:27:31.821Z,12.72
2017-09-03T05:28:31.797Z,12.85
2017-09-03T05:29:31.755Z,13.09
2017-09-03T05:30:31.720Z,13.28
2017-09-03T05:31:31.686Z,13.47
2017-09-03T05:32:31.656Z,13.68
2017-09-03T05:33:31.622Z,13.71
2017-09-03T05:34:31.585Z,13.95
2017-09-03T05:35:31.558Z,14.20
2017-09-03T05:36:31.521Z,14.29
2017-09-03T05:37:31.491Z,14.40
2017-09-03T05:38:31.451Z,14.50
2017-09-03T05:39:31.418Z,14.62
2017-09-03T05:40:31.384Z,14.68
2017-09-03T05:41:31.352Z,14.60
2017-09-03T05:42:31.328Z,14.36
2017-09-03T05:43:31.285Z,14.70
2017-09-03T05:44:31.261Z,14.54
2017-09-03T05:45:31.221Z,14.73
2017-09-03T05:46:31.189Z,15.04
2017-09-03T05:47:31.168Z,15.27
2017-09-03T05:48:31.119Z,15.79
2017-09-03T05:49:31.084Z,15.46
2017-09-03T05:50:31.056Z,15.75
2017-09-03T05:51:31.020Z,16.09
2017-09-03T05:52:30.995Z,15.83
2017-09-03T05:53:30.959Z,16.20
2017-09-03T05:54:30.922Z,16.20
2017-09-03T05:55:30.895Z,16.39
2017-09-03T05:56:30.860Z,16.86
2017-09-03T05:57:30.828Z,17.20
2017-09-03T05:58:30.791Z,17.26
2017-09-03T05:59:30.754Z,17.46
2017-09-03T06:00:30.731Z,16.96
2017-09-03T06:01:30.692Z,17.15
2017-09-03T06:02:30.658Z,16.89
2017-09-03T06:03:30.625Z,17.04
2017-09-03T06:04:30.594Z,17.30
2017-09-03T06:05:30.560Z,17.26
2017-09-03T06:06:30.543Z,17.14
2017-09-03T06:07:30.502Z,17.46
2017-09-03T06:08:30.465Z,18.13
2017-09-03T06:09:30.440Z,18.25
2017-09-03T06:10:30.423Z,18.07
2017-09-03T06:11:30.368Z,17.92
2017-09-03T06:12:30.336Z,17.90
2017-09-03T06:13:30.310Z,18.49
2017-09-03T06:14:30.276Z,18.08
2017-09-03T06:15:30.251Z,18.59
2017-09-03T06:16:30.211Z,18.45
2017-09-03T06:17:30.182Z,18.75
2017-09-03T06:18:30.149Z,18.26
2017-09-03T06:19:30.126Z,18.04
2017-09-03T06:20:30.090Z,18.35
2017-09-03T06:21:30.059Z,18.84
2017-09-03T06:22:30.032Z,19.18
2017-09-03T06:23:29.998Z,18.34
2017-09-03T06:24:29.984Z,18.45
2017-09-03T06:25:29.941Z,18.56
2017-09-03T06:26:29.911Z,18.22
2017-09-03T06:27:29.880Z,17.38
2017-09-03T06:28:29.849Z,17.34
2017-09-03T06:29:29.819Z,16.56
2017-09-03T06:30:29.785Z,16.91
2017-09-03T06:31:29.756Z,17.20
2017-09-03T06:32:29.723Z,16.61
2017-09-03T06:33:29.691Z,16.38
2017-09-03T06:34:29.666Z,16.66
2017-09-03T06:35:29.634Z,17.04
2017-09-03T06:36:29.656Z,17.31
2017-09-03T06:37:29.573Z,16.31
2017-09-03T06:38:29.549Z,16.49
2017-09-03T06:39:29.513Z,16.61
2017-09-03T06:40:29.481Z,16.17
2017-09-03T06:41:29.453Z,16.66
2017-09-03T06:42:29.422Z,16.51
2017-09-03T06:43:29.390Z,17.02
2017-09-03T06:44:29.357Z,17.60
2017-09-03T06:45:29.331Z,17.08
2017-09-03T06:46:29.295Z,17.02
2017-09-03T06:47:29.271Z,16.97
2017-09-03T06:48:29.235Z,16.49
2017-09-03T06:49:29.211Z,16.42
2017-09-03T06:50:29.174Z,15.84
2017-09-03T06:51:29.145Z,15.98
2017-09-03T06:52:29.122Z,16.02
2017-09-03T06:53:29.089Z,16.43
2017-09-03T06:54:29.061Z,16.50
2017-09-03T06:55:29.018Z,16.53
2017-09-03T06:56:28.992Z,16.61
2017-09-03T06:57:28.963Z,16.54
2017-09-03T06:58:28.930Z,16.24
2017-09-03T06:59:28.899Z,16.05
2017-09-03T07:00:28.875Z,16.24
2017-09-03T07:01:28.839Z,16.61
2017-09-03T07:02:28.808Z,16.58
2017-09-03T07:03:28.779Z,16.10
2017-09-03T07:04:28.752Z,15.68
2017-09-03T07:05:28.716Z,15.70
2017-09-03T07:06:28.678Z,15.40
2017-09-03T07:07:28.658Z,15.52
2017-09-03T07:08:28.628Z,15.55
2017-09-03T07:09:28.595Z,15.72
2017-09-03T07:10:28.558Z,16.00
2017-09-03T07:11:28.525Z,15.88
2017-09-03T07:12:28.504Z,15.91
2017-09-03T07:13:28.472Z,16.10
2017-09-03T07:14:28.438Z,16.32
2017-09-03T07:15:28.427Z,16.60
2017-09-03T07:16:28.377Z,16.65
2017-09-03T07:17:28.345Z,16.42
2017-09-03T07:18:28.317Z,16.32
2017-09-03T07:19:28.284Z,16.15
2017-09-03T07:20:28.252Z,16.01
2017-09-03T07:21:28.220Z,15.82
2017-09-03T07:22:28.184Z,16.09
2017-09-03T07:23:28.169Z,16.24
2017-09-03T07:24:28.130Z,16.01
2017-09-03T07:25:28.095Z,16.15
2017-09-03T07:26:28.066Z,16.35
2017-09-03T07:27:28.035Z,16.20
2017-09-03T07:28:28.006Z,16.50
2017-09-03T07:29:27.973Z,16.68
2017-09-03T07:30:27.944Z,16.79
2017-09-03T07:31:27.911Z,16.64
2017-09-03T07:32:27.876Z,16.51
2017-09-03T07:33:27.846Z,16.41
2017-09-03T07:34:27.814Z,16.36
2017-09-03T07:35:27.809Z,16.35
2017-09-03T07:36:27.760Z,16.58
2017-09-03T07:37:27.727Z,16.68
2017-09-03T07:38:27.700Z,16.56
2017-09-03T07:39:27.666Z,16.78
2017-09-03T07:40:27.640Z,16.46
2017-09-03T07:41:27.606Z,16.24
2017-09-03T07:42:27.578Z,16.01
2017-09-03T07:43:27.542Z,15.95
2017-09-03T07:44:27.508Z,15.97
2017-09-03T07:45:27.476Z,16.05
2017-09-03T07:46:27.463Z,15.97
2017-09-03T07:47:27.427Z,16.00
2017-09-03T07:48:27.405Z,15.84
2017-09-03T07:49:27.365Z,15.90
2017-09-03T07:50:27.328Z,15.77
2017-09-03T07:51:27.291Z,15.65
2017-09-03T07:52:27.307Z,15.91
2017-09-03T07:53:27.242Z,15.94
2017-09-03T07:54:27.196Z,15.84
2017-09-03T07:55:27.172Z,15.83
2017-09-03T07:56:27.153Z,15.79
2017-09-03T07:57:27.110Z,15.76
2017-09-03T07:58:27.073Z,15.83
2017-09-03T07:59:27.040Z,15.75
2017-09-03T08:00:27.005Z,15.75
2017-09-03T08:01:26.991Z,15.70
2017-09-03T08:02:26.959Z,15.67
2017-09-03T08:03:26.918Z,15.82
2017-09-03T08:04:26.883Z,16.02
2017-09-03T08:05:26.852Z,16.00
2017-09-03T08:06:26.820Z,16.09
2017-09-03T08:07:26.788Z,16.10
2017-09-03T08:08:26.761Z,16.23
2017-09-03T08:09:26.729Z,16.32
2017-09-03T08:10:26.699Z,16.32
2017-09-03T08:11:26.663Z,16.33
2017-09-03T08:12:26.630Z,16.36
2017-09-03T08:13:26.604Z,16.12
2017-09-03T08:14:26.583Z,16.16
2017-09-03T08:15:26.533Z,16.35
2017-09-03T08:16:26.500Z,16.61
2017-09-03T08:17:26.477Z,16.71
2017-09-03T08:18:26.441Z,16.76
2017-09-03T08:19:26.419Z,16.69
2017-09-03T08:20:26.382Z,16.86
2017-09-03T08:21:26.406Z,16.84
2017-09-03T08:22:26.311Z,16.86
2017-09-03T08:23:26.284Z,16.89
2017-09-03T08:24:26.244Z,16.76
2017-09-03T08:25:26.213Z,16.78
2017-09-03T08:26:26.189Z,16.87
2017-09-03T08:27:26.157Z,17.12
2017-09-03T08:28:26.119Z,17.04
2017-09-03T08:29:26.091Z,17.08
2017-09-03T08:30:26.063Z,17.11
2017-09-03T08:31:26.033Z,17.01
2017-09-03T08:32:25.999Z,16.84
2017-09-03T08:33:25.975Z,17.14
2017-09-03T08:34:25.933Z,17.12
2017-09-03T08:35:25.905Z,17.51
2017-09-03T08:36:25.873Z,17.39
2017-09-03T08:37:25.842Z,17.54
2017-09-03T08:38:25.811Z,17.60
2017-09-03T08:39:25.781Z,17.34
2017-09-03T08:40:25.743Z,17.49
2017-09-03T08:41:25.724Z,17.60
2017-09-03T08:42:25.686Z,17.51
2017-09-03T08:43:25.658Z,17.51
2017-09-03T08:44:25.620Z,17.67
2017-09-03T08:45:25.596Z,17.56
2017-09-03T08:46:25.554Z,17.67
2017-09-03T08:47:25.523Z,17.68
2017-09-03T08:48:25.491Z,17.85
2017-09-03T08:49:25.466Z,18.01
2017-09-03T08:50:25.432Z,17.95
2017-09-03T08:51:25.405Z,18.01
2017-09-03T08:52:25.380Z,17.76
2017-09-03T08:53:25.342Z,17.98
2017-09-03T08:54:25.321Z,17.94
2017-09-03T08:55:25.278Z,17.85
2017-09-03T08:56:25.252Z,17.72
2017-09-03T08:57:25.224Z,17.71
2017-09-03T08:58:25.193Z,17.71
2017-09-03T08:59:25.155Z,17.87
2017-09-03T09:00:25.128Z,17.94
2017-09-03T09:01:25.096Z,17.85
2017-09-03T09:02:25.065Z,17.79
2017-09-03T09:03:25.037Z,17.80
2017-09-03T09:04:25.004Z,17.76
2017-09-03T09:05:24.972Z,17.78
2017-09-03T09:06:24.942Z,17.72
2017-09-03T09:07:24.913Z,17.89
2017-09-03T09:08:24.880Z,17.82
2017-09-03T09:09:24.849Z,17.97
2017-09-03T09:10:24.816Z,18.11
2017-09-03T09:11:24.787Z,18.33
2017-09-03T09:12:24.753Z,18.53
2017-09-03T09:13:24.722Z,18.49
2017-09-03T09:14:24.692Z,18.53
2017-09-03T09:15:24.697Z,18.16
2017-09-03T09:16:24.662Z,18.07
2017-09-03T09:17:24.611Z,18.37
2017-09-03T09:18:24.577Z,18.33
2017-09-03T09:19:24.544Z,18.47
2017-09-03T09:20:24.515Z,18.80
2017-09-03T09:21:24.487Z,18.83
2017-09-03T09:22:24.449Z,18.88
2017-09-03T09:23:24.422Z,18.86
2017-09-03T09:24:24.390Z,18.44
2017-09-03T09:25:24.357Z,18.38
2017-09-03T09:26:24.328Z,18.34
2017-09-03T09:27:24.303Z,18.20
2017-09-03T09:28:24.279Z,18.40
2017-09-03T09:29:24.247Z,18.40
2017-09-03T09:30:24.208Z,18.63
2017-09-03T09:31:24.186Z,18.43
2017-09-03T09:32:24.161Z,18.10
2017-09-03T09:33:24.122Z,18.01
2017-09-03T09:34:24.090Z,18.05
2017-09-03T09:35:24.061Z,18.35
2017-09-03T09:36:24.026Z,18.49
2017-09-03T09:37:24.004Z,18.10
2017-09-03T09:38:23.971Z,17.94
2017-09-03T09:39:23.949Z,18.07
2017-09-03T09:40:23.932Z,18.34
2017-09-03T09:41:23.884Z,18.63
2017-09-03T09:42:23.856Z,18.56
2017-09-03T09:43:23.818Z,18.59
2017-09-03T09:44:23.789Z,18.35
2017-09-03T09:45:23.769Z,18.20
2017-09-03T09:46:23.731Z,18.37
2017-09-03T09:47:23.701Z,18.25
2017-09-03T09:48:23.670Z,18.23
2017-09-03T09:49:23.675Z,18.29
2017-09-03T09:50:23.607Z,18.26
2017-09-03T09:51:23.583Z,18.38
2017-09-03T09:52:23.556Z,18.53
2017-09-03T09:53:23.522Z,18.63
2017-09-03T09:54:23.487Z,18.75
2017-09-03T09:55:23.495Z,18.83
2017-09-03T09:56:23.426Z,18.63
2017-09-03T09:57:23.398Z,18.68
2017-09-03T09:58:23.451Z,18.56
2017-09-03T09:59:23.351Z,18.50
2017-09-03T10:00:23.309Z,18.13
2017-09-03T10:01:23.285Z,18.22
2017-09-03T10:02:23.252Z,18.43
2017-09-03T10:03:23.235Z,18.59
2017-09-03T10:04:23.365Z,18.55
2017-09-03T10:05:23.159Z,18.44
2017-09-03T10:06:23.128Z,18.43
2017-09-03T10:07:23.112Z,18.11
2017-09-03T10:08:23.078Z,18.16
2017-09-03T10:09:23.048Z,18.37
2017-09-03T10:10:23.011Z,18.43
2017-09-03T10:11:22.985Z,18.45
2017-09-03T10:12:22.955Z,18.47
2017-09-03T10:13:22.920Z,18.77
2017-09-03T10:14:22.892Z,18.56
2017-09-03T10:15:22.868Z,18.47
2017-09-03T10:16:22.829Z,18.44
2017-09-03T10:17:22.804Z,18.55
2017-09-03T10:18:22.775Z,18.63
2017-09-03T10:19:22.741Z,18.62
2017-09-03T10:20:22.712Z,18.96
2017-09-03T10:21:22.693Z,19.16
2017-09-03T10:22:22.651Z,19.37
2017-09-03T10:23:22.621Z,19.33
2017-09-03T10:24:22.602Z,19.27
2017-09-03T10:25:22.565Z,19.24
2017-09-03T10:26:22.533Z,18.90
2017-09-03T10:27:22.509Z,18.90
2017-09-03T10:28:22.471Z,19.00
2017-09-03T10:29:22.443Z,18.92
2017-09-03T10:30:22.416Z,18.56
2017-09-03T10:31:22.387Z,18.56
2017-09-03T10:32:22.354Z,18.05
2017-09-03T10:33:22.324Z,17.48
2017-09-03T10:34:22.290Z,16.91
2017-09-03T10:35:22.268Z,16.42
2017-09-03T10:36:22.231Z,16.28
2017-09-03T10:37:22.202Z,16.23
2017-09-03T10:38:22.183Z,16.08
2017-09-03T10:39:22.150Z,16.04
2017-09-03T10:40:22.110Z,16.00
2017-09-03T10:41:22.078Z,16.04
2017-09-03T10:42:22.052Z,16.01
2017-09-03T10:43:22.044Z,15.83
2017-09-03T10:44:21.983Z,15.91
2017-09-03T10:45:21.984Z,15.76
2017-09-03T10:46:21.918Z,15.83
2017-09-03T10:47:21.904Z,15.86
2017-09-03T10:48:21.865Z,15.92
2017-09-03T10:49:21.825Z,15.94
2017-09-03T10:50:21.805Z,15.90
2017-09-03T10:51:21.767Z,16.02
2017-09-03T10:52:21.730Z,16.04
2017-09-03T10:53:21.701Z,16.13
2017-09-03T10:54:21.665Z,16.31
2017-09-03T10:55:21.633Z,16.47
2017-09-03T10:56:21.606Z,16.64
2017-09-03T10:57:21.571Z,16.72
2017-09-03T10:58:21.540Z,16.78
2017-09-03T10:59:21.502Z,16.99
2017-09-03T11:00:21.475Z,16.94
2017-09-03T11:01:21.438Z,17.08
2017-09-03T11:02:21.415Z,17.08
2017-09-03T11:03:21.371Z,17.11
2017-09-03T11:04:21.369Z,17.11
2017-09-03T11:05:21.318Z,17.20
2017-09-03T11:06:21.281Z,17.19
2017-09-03T11:07:21.248Z,17.22
2017-09-03T11:08:21.214Z,17.20
2017-09-03T11:09:21.180Z,17.15
2017-09-03T11:10:21.223Z,17.14
2017-09-03T11:11:21.139Z,17.01
2017-09-03T11:12:21.089Z,17.05
2017-09-03T11:13:21.056Z,16.83
2017-09-03T11:14:21.025Z,16.90
2017-09-03T11:15:20.991Z,16.66
2017-09-03T11:16:20.956Z,16.65
2017-09-03T11:17:20.929Z,16.61
2017-09-03T11:18:20.899Z,16.53
2017-09-03T11:19:20.865Z,16.51
2017-09-03T11:20:20.854Z,16.51
2017-09-03T11:21:20.804Z,16.49
2017-09-03T11:22:20.775Z,16.56
2017-09-03T11:23:20.760Z,16.64
2017-09-03T11:24:20.715Z,16.69
2017-09-03T11:25:20.676Z,16.66
2017-09-03T11:26:20.640Z,16.86
2017-09-03T11:27:20.615Z,16.90
2017-09-03T11:28:20.592Z,17.08
2017-09-03T11:29:20.553Z,17.09
2017-09-03T11:30:20.517Z,17.23
2017-09-03T11:31:20.482Z,17.22
2017-09-03T11:32:20.450Z,17.20
2017-09-03T11:33:20.423Z,17.19
2017-09-03T11:34:20.400Z,17.39
2017-09-03T11:35:20.360Z,17.59
2017-09-03T11:36:20.333Z,17.63
2017-09-03T11:37:20.289Z,17.63
2017-09-03T11:38:20.265Z,17.64
2017-09-03T11:39:20.225Z,17.67
2017-09-03T11:40:20.195Z,17.59
2017-09-03T11:41:20.160Z,17.72
2017-09-03T11:42:20.150Z,17.65
2017-09-03T11:43:20.108Z,17.85
2017-09-03T11:44:20.071Z,17.82
2017-09-03T11:45:20.041Z,17.86
2017-09-03T11:46:20.012Z,17.78
2017-09-03T11:47:19.971Z,17.90
2017-09-03T11:48:19.942Z,18.05
2017-09-03T11:49:19.914Z,18.07
2017-09-03T11:50:19.882Z,18.08
2017-09-03T11:51:19.850Z,18.05
2017-09-03T11:52:19.825Z,18.28
2017-09-03T11:53:19.792Z,18.23
2017-09-03T11:54:19.751Z,18.29
2017-09-03T11:55:19.731Z,18.33
2017-09-03T11:56:19.694Z,18.44
2017-09-03T11:57:19.665Z,18.49
2017-09-03T11:58:19.631Z,18.60
2017-09-03T11:59:19.606Z,18.74
2017-09-03T12:00:19.590Z,18.71
2017-09-03T12:01:19.545Z,18.77
2017-09-03T12:02:19.519Z,18.81
2017-09-03T12:03:19.482Z,18.89
2017-09-03T12:04:19.441Z,18.92
2017-09-03T12:05:19.414Z,18.92
2017-09-03T12:06:19.383Z,18.92
2017-09-03T12:07:19.357Z,18.96
2017-09-03T12:08:19.331Z,18.81
2017-09-03T12:09:19.291Z,18.81
2017-09-03T12:10:19.264Z,18.78
2017-09-03T12:11:19.232Z,18.74
2017-09-03T12:12:19.210Z,18.75
2017-09-03T12:13:19.165Z,18.70
2017-09-03T12:14:19.145Z,18.71
2017-09-03T12:15:19.119Z,18.66
2017-09-03T12:16:19.078Z,18.78
2017-09-03T12:17:19.044Z,18.95
2017-09-03T12:18:19.022Z,19.07
2017-09-03T12:19:18.993Z,18.95
2017-09-03T12:20:18.958Z,18.98
2017-09-03T12:21:18.923Z,19.24
2017-09-03T12:22:18.895Z,19.39
2017-09-03T12:23:18.865Z,19.26
2017-09-03T12:24:18.833Z,19.36
2017-09-03T12:25:18.824Z,19.12
2017-09-03T12:26:18.767Z,19.09
2017-09-03T12:27:18.742Z,19.07
2017-09-03T12:28:18.721Z,19.18
2017-09-03T12:29:18.688Z,19.19
2017-09-03T12:30:18.647Z,19.30
2017-09-03T12:31:18.632Z,19.37
2017-09-03T12:32:18.618Z,19.41
2017-09-03T12:33:18.561Z,19.58
2017-09-03T12:34:18.527Z,19.64
2017-09-03T12:35:18.505Z,19.84
2017-09-03T12:36:18.483Z,19.91
2017-09-03T12:37:18.481Z,19.81
2017-09-03T12:38:18.417Z,19.81
2017-09-03T12:39:18.379Z,19.89
2017-09-03T12:40:18.350Z,19.85
2017-09-03T12:41:18.318Z,19.92
2017-09-03T12:42:18.295Z,19.91
2017-09-03T12:43:18.302Z,19.88
2017-09-03T12:44:18.230Z,19.79
2017-09-03T12:45:18.192Z,19.71
2017-09-03T12:46:18.165Z,19.82
2017-09-03T12:47:18.139Z,19.77
2017-09-03T12:48:18.121Z,19.67
2017-09-03T12:49:18.079Z,19.70
2017-09-03T12:50:18.062Z,19.84
2017-09-03T12:51:18.031Z,19.62
2017-09-03T12:52:17.986Z,19.59